Time;durP1;ratioP1;P1;durP2;ratioP2;P2;SDS_P1;SDS_P2;PMS_P1;PMS_P2;Temp;Humidity;BMP_temperature;BMP_pressure;BME280_temperature;BME280_humidity;BME280_pressure;Samples;Min_cycle;Max_cycle;Signal;HPM_P1;HPM_P2
2023/04/10 00:01:07;;;;;;;2.00;0.57;;;6.20;99.90;;;;;;5073429;28;20469;-83
2023/04/10 00:03:33;;;;;;;1.73;1.57;;;6.20;99.90;;;;;;5073304;28;20524;-83
2023/04/10 00:06:00;;;;;;;6.83;1.40;;;6.20;99.90;;;;;;5072991;28;20891;-82
2023/04/10 00:08:27;;;;;;;1.60;0.80;;;6.20;99.90;;;;;;5073264;28;20437;-82
2023/04/10 00:10:55;;;;;;;4.87;1.80;;;6.20;99.90;;;;;;5072812;28;20973;-83
2023/04/10 00:13:22;;;;;;;1.80;1.07;;;6.20;99.90;;;;;;5073122;28;20958;-82
2023/04/10 00:15:49;;;;;;;6.43;1.80;;;6.20;99.90;;;;;;5072879;28;20953;-82
2023/04/10 00:18:16;;;;;;;1.90;1.23;;;6.20;99.90;;;;;;5073167;28;20881;-82
2023/04/10 00:20:43;;;;;;;5.40;2.17;;;6.10;99.90;;;;;;5073056;28;20476;-83
2023/04/10 00:23:09;;;;;;;1.03;0.63;;;6.10;99.90;;;;;;5073098;28;20441;-82
2023/04/10 00:25:36;;;;;;;3.50;1.67;;;6.10;99.90;;;;;;5073109;28;20445;-82
2023/04/10 00:28:04;;;;;;;1.67;1.33;;;6.10;99.90;;;;;;5073053;28;20457;-83
2023/04/10 00:30:32;;;;;;;2.93;1.60;;;6.10;99.90;;;;;;5073007;28;20496;-82
2023/04/10 00:32:59;;;;;;;1.33;0.70;;;6.10;99.90;;;;;;5075914;28;20477;-83
2023/04/10 00:35:25;;;;;;;1.60;1.20;;;6.10;99.90;;;;;;5076919;28;20812;-82
2023/04/10 00:37:53;;;;;;;1.90;1.13;;;6.10;99.90;;;;;;5076926;28;20445;-82
2023/04/10 00:40:20;;;;;;;0.90;0.70;;;6.10;99.90;;;;;;5076757;28;20476;-83
2023/04/10 00:42:47;;;;;;;2.00;1.30;;;6.10;99.90;;;;;;5076809;28;20453;-82
2023/04/10 00:45:15;;;;;;;2.97;0.90;;;6.10;99.90;;;;;;5076787;28;20457;-83
2023/04/10 00:47:42;;;;;;;6.83;0.93;;;6.10;99.90;;;;;;5076284;28;20871;-83
2023/04/10 00:50:09;;;;;;;3.67;2.20;;;6.10;99.90;;;;;;5076602;28;20470;-83
2023/04/10 00:52:36;;;;;;;2.10;1.23;;;6.10;99.90;;;;;;5076225;28;20477;-83
2023/04/10 00:55:03;;;;;;;1.43;1.13;;;6.10;99.90;;;;;;5076493;28;20849;-83
2023/04/10 00:57:31;;;;;;;1.07;0.90;;;6.00;99.90;;;;;;5076538;28;20771;-83
2023/04/10 00:59:58;;;;;;;3.47;2.13;;;6.00;99.90;;;;;;5076671;28;20476;-82
2023/04/10 01:02:26;;;;;;;0.77;0.60;;;6.00;99.90;;;;;;5076393;28;20437;-83
2023/04/10 01:04:53;;;;;;;3.83;1.73;;;5.90;99.90;;;;;;5076414;28;20836;-82
2023/04/10 01:07:28;;;;;;;4.00;1.87;;;5.90;99.90;;;;;;5076356;28;20444;-83
2023/04/10 01:10:03;;;;;;;1.47;1.37;;;5.80;99.90;;;;;;5076255;28;20468;-82
2023/04/10 01:12:44;;;;;;;1.00;0.80;;;5.70;99.90;;;;;;5076271;28;20504;-82
2023/04/10 01:15:15;;;;;;;1.27;0.67;;;5.70;99.90;;;;;;5076256;28;20473;-82
2023/04/10 01:17:50;;;;;;;2.90;0.90;;;5.60;99.90;;;;;;5075910;28;20909;-83
2023/04/10 01:20:21;;;;;;;1.87;1.00;;;5.60;99.90;;;;;;5075876;28;20552;-83
2023/04/10 01:23:23;;;;;;;4.50;1.07;;;5.50;99.90;;;;;;5076343;28;20426;-83
2023/04/10 01:25:56;;;;;;;2.40;0.77;;;5.50;99.90;;;;;;5060480;28;20445;-83
2023/04/10 01:28:51;;;;;;;1.30;0.53;;;5.40;99.90;;;;;;5076036;28;20441;-83
2023/04/10 01:31:21;;;;;;;1.70;0.93;;;5.40;99.90;;;;;;5073432;28;21034;-82
2023/04/10 01:33:51;;;;;;;3.07;1.67;;;5.30;99.90;;;;;;5075813;28;20573;-83
2023/04/10 01:36:24;;;;;;;0.73;0.73;;;5.30;99.90;;;;;;5075913;28;20449;-83
2023/04/10 01:38:51;;;;;;;2.47;1.10;;;5.20;99.90;;;;;;5075864;28;20434;-83
2023/04/10 01:41:19;;;;;;;2.53;1.00;;;5.10;99.90;;;;;;5075637;28;20469;-83
2023/04/10 01:43:49;;;;;;;1.13;0.83;;;5.10;99.90;;;;;;5074867;28;20442;-83
2023/04/10 01:46:18;;;;;;;0.70;0.70;;;5.10;99.90;;;;;;5075468;28;20485;-82
2023/04/10 01:48:46;;;;;;;5.40;1.10;;;5.10;99.90;;;;;;5075345;28;20430;-82
2023/04/10 01:51:14;;;;;;;0.60;0.60;;;5.20;99.90;;;;;;5075499;28;20875;-82
2023/04/10 01:53:44;;;;;;;0.90;0.87;;;5.20;99.90;;;;;;5075567;28;20481;-82
2023/04/10 01:56:12;;;;;;;7.33;2.23;;;5.30;99.90;;;;;;5075153;28;20960;-82
2023/04/10 01:58:39;;;;;;;1.10;0.90;;;5.30;99.90;;;;;;5075454;28;20449;-83
2023/04/10 02:01:06;;;;;;;0.90;0.80;;;5.20;99.90;;;;;;5075322;28;20477;-82
2023/04/10 02:03:34;;;;;;;2.30;1.77;;;5.30;99.90;;;;;;5075311;28;20481;-82
2023/04/10 02:06:09;;;;;;;1.00;0.77;;;5.30;99.90;;;;;;5075273;28;20453;-83
2023/04/10 02:08:40;;;;;;;1.60;1.10;;;5.30;99.90;;;;;;5075298;28;20465;-83
2023/04/10 02:11:15;;;;;;;1.20;0.70;;;5.40;99.90;;;;;;5075129;28;20984;-82
2023/04/10 02:13:42;;;;;;;1.07;1.03;;;5.50;99.90;;;;;;5075121;28;20474;-82
2023/04/10 02:16:11;;;;;;;4.57;1.80;;;5.50;99.90;;;;;;5075081;28;20473;-83
2023/04/10 02:18:42;;;;;;;1.27;1.10;;;5.50;99.90;;;;;;5074741;28;20441;-82
2023/04/10 02:21:09;;;;;;;0.60;0.50;;;5.50;99.90;;;;;;5074964;28;20468;-83
2023/04/10 02:23:36;;;;;;;1.90;0.63;;;5.40;99.90;;;;;;5074951;28;20810;-82
2023/04/10 02:26:07;;;;;;;3.03;0.90;;;5.40;99.90;;;;;;5075135;28;20453;-82
2023/04/10 02:28:34;;;;;;;0.93;0.70;;;5.40;99.90;;;;;;5074885;28;20469;-82
2023/04/10 02:31:00;;;;;;;1.57;1.10;;;5.40;99.90;;;;;;5074416;28;20996;-82
2023/04/10 02:33:27;;;;;;;0.60;0.43;;;5.40;99.90;;;;;;5074652;28;20558;-82
2023/04/10 02:35:55;;;;;;;0.57;0.57;;;5.30;99.90;;;;;;5074409;28;20437;-82
2023/04/10 02:38:22;;;;;;;3.10;1.67;;;5.30;99.90;;;;;;5074656;28;20445;-83
2023/04/10 02:40:49;;;;;;;3.07;1.67;;;5.30;99.90;;;;;;5074523;28;20465;-83
2023/04/10 02:43:15;;;;;;;1.27;0.63;;;5.30;99.90;;;;;;5074486;28;20449;-82
2023/04/10 02:45:42;;;;;;;1.97;1.53;;;5.30;99.90;;;;;;5074318;28;20449;-82
2023/04/10 02:48:09;;;;;;;1.67;1.00;;;5.30;99.90;;;;;;5074400;28;20468;-83
2023/04/10 02:50:36;;;;;;;1.43;0.50;;;5.30;99.90;;;;;;5073990;28;20473;-82
2023/04/10 02:53:04;;;;;;;2.50;1.07;;;5.30;99.90;;;;;;5074274;28;20489;-82
2023/04/10 02:55:31;;;;;;;1.80;1.17;;;5.20;99.90;;;;;;5073234;28;20454;-82
2023/04/10 02:57:57;;;;;;;1.57;0.80;;;5.10;99.90;;;;;;5074242;28;20476;-83
2023/04/10 03:00:24;;;;;;;3.23;0.70;;;5.00;99.90;;;;;;5074110;28;20492;-83
2023/04/10 03:02:52;;;;;;;3.00;1.57;;;4.90;99.90;;;;;;5074161;28;20820;-82
2023/04/10 03:05:19;;;;;;;1.00;0.70;;;4.90;99.90;;;;;;5074102;28;20540;-82
2023/04/10 03:07:45;;;;;;;0.43;0.43;;;4.80;99.90;;;;;;5073748;28;20450;-82
2023/04/10 03:10:13;;;;;;;0.80;0.80;;;4.80;99.90;;;;;;5073949;28;20504;-82
2023/04/10 03:12:40;;;;;;;1.53;1.40;;;4.70;99.90;;;;;;5073927;28;20461;-83
2023/04/10 03:15:08;;;;;;;1.57;1.00;;;4.60;99.90;;;;;;5073928;28;20445;-82
2023/04/10 03:17:34;;;;;;;0.60;0.53;;;4.50;99.90;;;;;;5073864;28;20461;-83
2023/04/10 03:20:01;;;;;;;2.00;1.00;;;4.50;99.90;;;;;;5073720;28;20458;-82
2023/04/10 03:22:30;;;;;;;2.40;1.00;;;4.40;99.90;;;;;;5073815;28;20452;-82
2023/04/10 03:24:57;;;;;;;1.27;0.80;;;4.40;99.90;;;;;;5073978;28;20438;-82
2023/04/10 03:27:25;;;;;;;2.60;1.23;;;4.40;99.90;;;;;;5073815;28;20441;-82
2023/04/10 03:29:52;;;;;;;0.70;0.70;;;4.40;99.90;;;;;;5073683;28;20512;-82
2023/04/10 03:32:19;;;;;;;1.37;1.27;;;4.50;99.90;;;;;;5073655;28;20453;-82
2023/04/10 03:34:45;;;;;;;1.90;0.90;;;4.50;99.90;;;;;;5073595;28;20493;-83
2023/04/10 03:37:12;;;;;;;2.77;0.87;;;4.50;99.90;;;;;;5073360;28;20442;-83
2023/04/10 03:39:39;;;;;;;1.00;0.90;;;4.50;99.90;;;;;;5073527;28;20470;-82
2023/04/10 03:42:05;;;;;;;1.07;0.80;;;4.70;99.90;;;;;;5073534;28;20452;-83
2023/04/10 03:44:34;;;;;;;1.33;0.70;;;4.90;99.90;;;;;;5073531;28;20449;-82
2023/04/10 03:47:01;;;;;;;0.43;0.43;;;5.10;99.90;;;;;;5073113;28;21003;-83
2023/04/10 03:49:28;;;;;;;2.43;0.60;;;5.10;99.90;;;;;;5073477;28;20465;-83
2023/04/10 03:51:54;;;;;;;0.90;0.60;;;5.10;99.90;;;;;;5073604;28;20503;-82
2023/04/10 03:54:21;;;;;;;1.37;1.27;;;5.10;99.90;;;;;;5073676;28;20571;-83
2023/04/10 03:56:48;;;;;;;2.40;1.27;;;5.10;99.90;;;;;;5073480;28;20441;-82
2023/04/10 03:59:14;;;;;;;0.93;0.93;;;5.20;99.90;;;;;;5073068;28;20957;-82
2023/04/10 04:01:42;;;;;;;0.67;0.67;;;5.20;99.90;;;;;;5073045;28;20945;-82
2023/04/10 04:04:09;;;;;;;0.53;0.50;;;5.20;99.90;;;;;;5072992;28;20941;-82
2023/04/10 04:06:36;;;;;;;2.20;0.90;;;5.20;99.90;;;;;;5072850;28;20449;-82
2023/04/10 04:09:03;;;;;;;1.07;0.70;;;5.30;99.90;;;;;;5072953;28;20809;-82
2023/04/10 04:11:30;;;;;;;5.13;1.10;;;5.30;99.90;;;;;;5072983;28;20876;-82
2023/04/10 04:13:56;;;;;;;1.40;1.00;;;5.20;99.90;;;;;;5072829;28;21000;-82
2023/04/10 04:16:23;;;;;;;2.13;1.10;;;5.20;99.90;;;;;;5073074;28;20453;-83
2023/04/10 04:18:51;;;;;;;1.50;1.40;;;5.20;99.90;;;;;;5073239;28;20859;-82
2023/04/10 04:21:18;;;;;;;1.00;1.00;;;5.20;99.90;;;;;;5073078;28;20481;-82
2023/04/10 04:23:44;;;;;;;0.90;0.70;;;5.30;99.90;;;;;;5073112;28;20446;-82
2023/04/10 04:26:11;;;;;;;4.53;0.60;;;5.30;99.90;;;;;;5073133;28;20453;-82
2023/04/10 04:28:38;;;;;;;0.80;0.73;;;5.20;99.90;;;;;;5073131;28;20503;-82
2023/04/10 04:31:05;;;;;;;0.80;0.80;;;5.10;99.90;;;;;;5072746;28;20472;-83
2023/04/10 04:33:32;;;;;;;3.53;0.80;;;5.10;99.90;;;;;;5072908;28;20512;-83
2023/04/10 04:36:00;;;;;;;7.50;1.23;;;5.00;99.90;;;;;;5073039;28;20438;-82
2023/04/10 04:38:27;;;;;;;0.70;0.63;;;5.10;99.90;;;;;;5072743;28;20445;-83
2023/04/10 04:40:53;;;;;;;1.70;0.93;;;5.00;99.90;;;;;;5072896;28;20481;-83
2023/04/10 04:43:20;;;;;;;4.13;2.13;;;5.00;99.90;;;;;;5072683;28;20929;-82
2023/04/10 04:45:47;;;;;;;2.20;1.27;;;5.00;99.90;;;;;;5072735;28;20442;-82
2023/04/10 04:48:13;;;;;;;0.73;0.60;;;5.00;99.90;;;;;;5072919;28;20793;-82
2023/04/10 04:50:40;;;;;;;2.13;1.53;;;5.00;99.90;;;;;;5072834;28;20460;-83
2023/04/10 04:53:08;;;;;;;1.43;1.33;;;4.90;99.90;;;;;;5072771;28;20941;-82
2023/04/10 04:55:35;;;;;;;17.90;1.40;;;4.90;99.90;;;;;;5072806;28;20454;-82
2023/04/10 04:58:02;;;;;;;3.00;1.70;;;4.90;99.90;;;;;;5072830;28;20453;-83
2023/04/10 05:00:29;;;;;;;0.43;0.43;;;4.90;99.90;;;;;;5072744;28;20835;-83
2023/04/10 05:02:56;;;;;;;2.00;0.87;;;4.90;99.90;;;;;;5072521;28;20944;-82
2023/04/10 05:05:22;;;;;;;1.73;1.30;;;5.00;99.90;;;;;;5072467;28;20937;-83
2023/04/10 05:07:49;;;;;;;1.03;0.60;;;4.90;99.90;;;;;;5073152;28;20453;-83
2023/04/10 05:10:17;;;;;;;5.27;0.70;;;5.00;99.90;;;;;;5072628;28;20457;-82
2023/04/10 05:12:44;;;;;;;0.83;0.67;;;5.00;99.90;;;;;;5072375;28;20968;-82
2023/04/10 05:15:11;;;;;;;0.70;0.70;;;5.10;99.90;;;;;;5072565;28;20576;-82
2023/04/10 05:17:38;;;;;;;0.93;0.93;;;5.10;99.90;;;;;;5072660;28;20476;-82
2023/04/10 05:20:05;;;;;;;0.93;0.93;;;5.20;99.90;;;;;;5075124;28;20504;-82
2023/04/10 05:22:32;;;;;;;1.20;1.10;;;5.30;99.90;;;;;;5076115;28;20456;-82
2023/04/10 05:24:59;;;;;;;2.60;1.13;;;5.40;99.90;;;;;;5076050;28;20441;-82
2023/04/10 05:27:28;;;;;;;1.07;0.70;;;5.40;99.90;;;;;;5075734;28;20951;-82
2023/04/10 05:29:54;;;;;;;2.60;0.73;;;5.40;99.90;;;;;;5075660;28;20469;-83
2023/04/10 05:32:21;;;;;;;1.47;0.63;;;5.50;99.90;;;;;;5075965;28;20481;-82
2023/04/10 05:34:48;;;;;;;1.27;1.07;;;5.60;99.90;;;;;;5075773;28;20492;-83
2023/04/10 05:37:15;;;;;;;2.10;1.70;;;5.70;99.90;;;;;;5075901;28;20450;-83
2023/04/10 05:39:41;;;;;;;0.83;0.83;;;5.80;99.90;;;;;;5075776;28;20465;-82
2023/04/10 05:42:08;;;;;;;0.93;0.83;;;5.90;99.90;;;;;;5075544;28;20425;-82
2023/04/10 05:44:36;;;;;;;1.23;1.17;;;6.00;99.90;;;;;;5075396;28;20804;-82
2023/04/10 05:47:03;;;;;;;1.90;1.00;;;6.10;99.90;;;;;;5075385;28;20496;-82
2023/04/10 05:49:29;;;;;;;1.33;0.53;;;6.20;99.90;;;;;;5075564;28;20465;-82
2023/04/10 05:51:56;;;;;;;0.80;0.80;;;6.30;99.90;;;;;;5075638;28;20921;-82
2023/04/10 05:54:23;;;;;;;1.17;0.87;;;6.40;99.90;;;;;;5075484;28;20489;-83
2023/04/10 05:56:50;;;;;;;3.53;1.20;;;6.50;99.90;;;;;;5075483;28;20826;-83
2023/04/10 05:59:16;;;;;;;1.30;0.80;;;6.60;99.90;;;;;;5075057;28;20944;-83
2023/04/10 06:01:45;;;;;;;2.33;1.30;;;6.70;99.90;;;;;;5075381;28;20539;-83
2023/04/10 06:04:12;;;;;;;1.77;1.63;;;6.80;99.90;;;;;;5075344;28;20945;-82
2023/04/10 06:06:38;;;;;;;0.60;0.60;;;6.90;99.90;;;;;;5075372;28;20445;-83
2023/04/10 06:09:05;;;;;;;1.13;1.03;;;6.90;99.90;;;;;;5074882;28;20961;-82
2023/04/10 06:11:32;;;;;;;1.50;1.17;;;6.90;99.90;;;;;;5075236;28;20445;-83
2023/04/10 06:13:59;;;;;;;3.53;1.57;;;7.00;99.90;;;;;;5074765;28;20879;-83
2023/04/10 06:16:25;;;;;;;1.00;0.83;;;7.00;99.90;;;;;;5074833;28;20452;-83
2023/04/10 06:18:54;;;;;;;2.70;1.43;;;7.10;99.90;;;;;;5075083;28;20456;-83
2023/04/10 06:21:21;;;;;;;1.73;1.13;;;7.20;99.90;;;;;;5074944;28;20552;-83
2023/04/10 06:23:47;;;;;;;0.97;0.50;;;7.20;99.90;;;;;;5074619;28;20972;-83
2023/04/10 06:26:14;;;;;;;0.80;0.80;;;7.20;99.90;;;;;;5074963;28;20454;-83
2023/04/10 06:28:41;;;;;;;2.00;1.30;;;7.40;99.90;;;;;;5075132;28;20457;-82
2023/04/10 06:31:08;;;;;;;1.00;1.00;;;7.60;99.90;;;;;;5074125;28;20556;-82
2023/04/10 06:33:35;;;;;;;1.13;1.00;;;7.90;99.90;;;;;;5074512;28;20964;-83
2023/04/10 06:36:05;;;;;;;1.03;0.73;;;8.30;99.90;;;;;;5074651;28;20573;-83
2023/04/10 06:38:36;;;;;;;2.83;1.50;;;8.70;99.90;;;;;;5074376;28;20479;-83
2023/04/10 06:41:03;;;;;;;1.30;1.00;;;9.00;99.90;;;;;;5074820;28;20469;-83
2023/04/10 06:43:31;;;;;;;2.20;1.00;;;9.40;99.90;;;;;;5075247;28;20507;-83
2023/04/10 06:45:57;;;;;;;2.87;1.07;;;9.60;99.90;;;;;;5074293;28;20445;-82
2023/04/10 06:48:24;;;;;;;2.67;1.73;;;10.00;99.90;;;;;;5074521;28;20781;-83
2023/04/10 06:50:51;;;;;;;2.00;1.70;;;10.20;99.90;;;;;;5074373;28;20488;-82
2023/04/10 06:53:19;;;;;;;1.67;1.37;;;10.20;99.90;;;;;;5074432;28;20507;-83
2023/04/10 06:55:45;;;;;;;4.30;2.00;;;10.40;99.90;;;;;;5074065;28;20474;-83
2023/04/10 06:58:12;;;;;;;4.50;2.40;;;10.60;99.90;;;;;;5074219;28;20514;-83
2023/04/10 07:00:38;;;;;;;5.07;2.30;;;11.00;99.90;;;;;;5073910;28;20473;-83
2023/04/10 07:03:05;;;;;;;6.47;1.67;;;11.50;99.90;;;;;;5073904;28;20813;-83
2023/04/10 07:05:32;;;;;;;2.13;1.70;;;12.00;99.90;;;;;;5074196;28;20856;-83
2023/04/10 07:07:58;;;;;;;4.83;1.93;;;12.40;99.90;;;;;;5074114;28;20453;-83
2023/04/10 07:10:26;;;;;;;1.17;1.00;;;12.50;99.90;;;;;;5073983;28;20469;-83
2023/04/10 07:12:53;;;;;;;2.10;1.70;;;12.60;99.90;;;;;;5073995;28;20461;-83
2023/04/10 07:15:20;;;;;;;3.07;1.57;;;12.90;99.90;;;;;;5074122;28;20481;-83
2023/04/10 07:17:48;;;;;;;2.70;1.47;;;13.10;99.60;;;;;;5074105;28;20450;-83
2023/04/10 07:20:14;;;;;;;1.63;1.00;;;13.40;99.40;;;;;;5073797;28;20500;-82
2023/04/10 07:22:41;;;;;;;1.67;1.00;;;13.70;98.10;;;;;;5073965;28;20452;-83
2023/04/10 07:25:09;;;;;;;1.20;1.10;;;14.00;94.50;;;;;;5073949;28;20453;-83
2023/04/10 07:27:37;;;;;;;1.50;0.93;;;14.40;94.70;;;;;;5074027;28;20535;-83
2023/04/10 07:30:04;;;;;;;2.10;1.40;;;14.90;92.30;;;;;;5073835;28;20474;-83
2023/04/10 07:32:32;;;;;;;3.13;1.37;;;15.50;91.20;;;;;;5073711;28;20512;-83
2023/04/10 07:34:59;;;;;;;2.80;1.40;;;16.00;85.40;;;;;;5073728;28;20481;-83
2023/04/10 07:37:26;;;;;;;1.10;0.87;;;16.50;81.00;;;;;;5073681;28;20460;-83
2023/04/10 07:39:53;;;;;;;2.20;1.30;;;17.40;78.50;;;;;;5073602;28;20469;-83
2023/04/10 07:42:20;;;;;;;3.83;1.50;;;18.20;70.40;;;;;;5072850;28;20472;-83
2023/04/10 07:44:48;;;;;;;1.47;1.00;;;18.50;68.10;;;;;;5073667;28;20472;-83
2023/04/10 07:47:15;;;;;;;4.97;1.60;;;18.70;66.20;;;;;;5073319;28;21001;-82
2023/04/10 07:49:42;;;;;;;2.20;1.33;;;18.60;63.80;;;;;;5073379;28;20457;-83
2023/04/10 07:52:08;;;;;;;2.37;1.70;;;18.50;65.00;;;;;;5073613;28;20471;-83
2023/04/10 07:54:36;;;;;;;1.67;1.40;;;18.10;63.90;;;;;;5073152;28;21049;-83
2023/04/10 07:57:02;;;;;;;1.43;1.17;;;17.90;63.10;;;;;;5073770;28;20445;-83
2023/04/10 07:59:29;;;;;;;3.00;1.70;;;17.80;63.40;;;;;;5073746;28;20462;-83
2023/04/10 08:01:57;;;;;;;2.03;1.43;;;17.90;64.20;;;;;;5073173;28;20945;-83
2023/04/10 08:04:24;;;;;;;1.63;1.03;;;18.00;61.90;;;;;;5073155;28;20803;-83
2023/04/10 08:06:50;;;;;;;1.40;1.10;;;17.70;62.20;;;;;;5073423;28;20854;-83
2023/04/10 08:09:17;;;;;;;2.73;1.90;;;17.40;63.00;;;;;;5073714;28;20453;-83
2023/04/10 08:11:44;;;;;;;2.20;1.47;;;17.10;63.80;;;;;;5073764;28;20442;-83
2023/04/10 08:14:12;;;;;;;1.83;1.40;;;16.90;65.50;;;;;;5073375;28;20457;-83
2023/04/10 08:16:39;;;;;;;2.20;1.23;;;16.60;63.40;;;;;;5073414;28;20446;-83
2023/04/10 08:19:07;;;;;;;1.87;1.50;;;16.60;64.70;;;;;;5073206;28;20566;-83
2023/04/10 08:21:33;;;;;;;1.93;1.17;;;16.50;65.80;;;;;;5073538;28;20446;-83
2023/04/10 08:24:01;;;;;;;4.07;2.00;;;16.60;64.90;;;;;;5073347;28;20819;-83
2023/04/10 08:26:29;;;;;;;1.30;1.20;;;16.40;64.80;;;;;;5073237;28;20446;-83
2023/04/10 08:28:57;;;;;;;2.60;1.40;;;16.10;64.60;;;;;;5073248;28;20477;-83
2023/04/10 08:31:26;;;;;;;1.73;1.20;;;15.80;64.70;;;;;;5073052;28;20481;-83
2023/04/10 08:33:53;;;;;;;1.60;1.07;;;15.70;66.30;;;;;;5073333;28;20495;-83
2023/04/10 08:36:21;;;;;;;2.50;1.30;;;15.20;66.80;;;;;;5072999;28;20488;-83
2023/04/10 08:38:48;;;;;;;1.50;1.23;;;15.00;67.40;;;;;;5072722;28;20827;-83
2023/04/10 08:41:17;;;;;;;2.70;1.60;;;14.90;67.70;;;;;;5072962;28;20477;-82
2023/04/10 08:43:44;;;;;;;0.80;0.70;;;14.90;68.10;;;;;;5073038;28;20442;-83
2023/04/10 08:46:11;;;;;;;1.50;1.20;;;14.90;67.60;;;;;;5072720;28;20845;-79
2023/04/10 08:48:44;;;;;;;1.97;0.90;;;15.10;68.00;;;;;;5072638;28;20902;-80
2023/04/10 08:51:15;;;;;;;1.53;1.10;;;15.60;67.60;;;;;;5072876;28;20469;-80
2023/04/10 08:53:44;;;;;;;2.83;1.10;;;16.50;66.30;;;;;;5075192;28;20503;-80
2023/04/10 08:56:14;;;;;;;1.30;0.80;;;18.00;64.30;;;;;;5076469;28;20481;-80
2023/04/10 08:58:42;;;;;;;4.50;1.47;;;19.20;59.40;;;;;;5076455;28;20475;-81
2023/04/10 09:01:09;;;;;;;1.60;1.20;;;20.40;58.10;;;;;;5076358;28;20552;-81
2023/04/10 09:03:36;;;;;;;0.80;0.80;;;21.40;57.10;;;;;;5076395;28;20445;-81
2023/04/10 09:06:04;;;;;;;1.20;0.93;;;22.20;53.30;;;;;;5076562;28;20449;-81
2023/04/10 09:08:31;;;;;;;0.83;0.80;;;23.00;52.50;;;;;;5076462;28;20539;-81
2023/04/10 09:10:59;;;;;;;2.23;1.33;;;22.90;50.50;;;;;;5076256;28;20473;-81
2023/04/10 09:13:37;;;;;;;1.53;1.00;;;22.90;49.20;;;;;;5076006;28;20820;-81
2023/04/10 09:16:04;;;;;;;0.73;0.70;;;23.20;47.90;;;;;;5076291;28;20207;-81
2023/04/10 09:18:42;;;;;;;3.38;1.10;;;23.50;48.10;;;;;;5076375;28;20203;-83
2023/04/10 09:21:10;;;;;;;1.63;1.17;;;23.70;47.00;;;;;;5076348;28;20229;-81
2023/04/10 09:23:37;;;;;;;2.03;1.30;;;23.70;46.50;;;;;;5075958;28;20690;-81
2023/04/10 09:26:31;;;;;;;1.25;0.90;;;23.80;47.60;;;;;;5076099;28;20199;-81
2023/04/10 09:29:00;;;;;;;1.20;0.90;;;24.50;46.30;;;;;;5076075;28;20210;-81
2023/04/10 09:31:32;;;;;;;2.50;0.90;;;25.00;45.40;;;;;;5075957;28;20250;-81
2023/04/10 09:34:11;;;;;;;1.48;1.00;;;24.90;43.90;;;;;;5076001;28;20190;-81
2023/04/10 09:36:40;;;;;;;2.10;1.73;;;24.90;43.90;;;;;;5075929;28;20210;-81
2023/04/10 09:39:07;;;;;;;0.98;0.80;;;25.20;44.70;;;;;;5075776;28;20253;-81
2023/04/10 09:41:35;;;;;;;1.25;1.13;;;25.60;44.70;;;;;;5075819;28;20202;-81
2023/04/10 09:44:10;;;;;;;1.00;0.90;;;26.00;42.60;;;;;;5075303;28;20727;-81
2023/04/10 09:46:37;;;;;;;1.08;1.00;;;25.90;41.10;;;;;;5075266;28;20229;-81
2023/04/10 09:49:06;;;;;;;1.05;0.95;;;26.20;43.30;;;;;;5075685;28;20580;-81
2023/04/10 09:51:34;;;;;;;1.00;1.00;;;26.40;40.80;;;;;;5075612;28;20224;-81
2023/04/10 09:54:01;;;;;;;1.65;1.17;;;26.70;39.50;;;;;;5075643;28;20207;-81
2023/04/10 09:56:29;;;;;;;0.98;0.80;;;26.00;39.80;;;;;;5075632;28;20222;-81
2023/04/10 09:58:59;;;;;;;1.00;0.90;;;25.20;40.10;;;;;;5075592;28;20214;-81
2023/04/10 10:01:29;;;;;;;0.82;0.70;;;25.20;41.60;;;;;;5075494;28;20218;-81
2023/04/10 10:03:58;;;;;;;1.42;1.08;;;25.10;42.20;;;;;;5075363;28;20206;-81
2023/04/10 10:06:26;;;;;;;1.00;0.85;;;24.80;43.10;;;;;;5075162;28;20203;-81
2023/04/10 10:08:57;;;;;;;0.70;0.68;;;25.10;43.30;;;;;;5075332;28;20289;-81
2023/04/10 10:11:25;;;;;;;0.73;0.70;;;25.40;42.00;;;;;;5075197;28;20222;-80
2023/04/10 10:13:52;;;;;;;0.90;0.70;;;25.30;40.00;;;;;;5074949;28;20202;-81
2023/04/10 10:16:25;;;;;;;1.05;0.82;;;25.40;40.50;;;;;;5074795;28;20644;-81
2023/04/10 10:18:57;;;;;;;1.02;0.70;;;25.10;40.30;;;;;;5075180;28;20197;-81
2023/04/10 10:21:25;;;;;;;0.90;0.90;;;25.00;40.60;;;;;;5075097;28;20680;-81
2023/04/10 10:23:53;;;;;;;1.75;0.98;;;24.20;40.60;;;;;;5074982;28;20198;-81
2023/04/10 10:26:22;;;;;;;1.48;1.05;;;23.50;40.60;;;;;;5075020;28;20183;-81
2023/04/10 10:28:50;;;;;;;0.70;0.70;;;23.60;40.80;;;;;;5074917;28;20211;-81
2023/04/10 10:31:18;;;;;;;1.50;0.67;;;23.00;41.40;;;;;;5074614;28;20233;-81
2023/04/10 10:33:47;;;;;;;0.73;0.70;;;23.20;39.90;;;;;;5074527;28;20453;-81
2023/04/10 10:36:16;;;;;;;0.97;0.80;;;23.40;39.80;;;;;;5074795;28;20484;-81
2023/04/10 10:38:53;;;;;;;0.70;0.70;;;24.00;39.90;;;;;;5074739;28;20502;-81
2023/04/10 10:41:25;;;;;;;0.88;0.77;;;25.30;40.10;;;;;;5074668;28;20237;-81
2023/04/10 10:44:01;;;;;;;0.70;0.50;;;26.00;36.70;;;;;;5075701;28;20210;-82
2023/04/10 10:46:37;;;;;;;0.50;0.50;;;25.40;34.70;;;;;;5074196;28;20237;-82
2023/04/10 10:49:05;;;;;;;0.90;0.60;;;24.40;38.10;;;;;;5074488;28;20602;-81
2023/04/10 10:51:45;;;;;;;1.17;0.70;;;23.90;35.80;;;;;;5074508;28;20210;-81
2023/04/10 10:54:31;;;;;;;0.67;0.67;;;23.20;38.80;;;;;;5074434;28;20277;-81
2023/04/10 10:56:58;;;;;;;0.63;0.63;;;23.20;38.10;;;;;;5074600;28;20206;-81
2023/04/10 10:59:54;;;;;;;0.60;0.50;;;23.60;38.50;;;;;;5074276;28;20309;-81
2023/04/10 11:02:20;;;;;;;1.23;0.80;;;23.50;37.10;;;;;;5074412;28;20278;-81
2023/04/10 11:04:49;;;;;;;0.53;0.50;;;23.90;38.40;;;;;;5074738;28;20187;-82
2023/04/10 11:07:16;;;;;;;0.60;0.60;;;24.20;38.70;;;;;;5074302;28;20191;-82
2023/04/10 11:09:48;;;;;;;0.50;0.50;;;24.10;36.10;;;;;;5074057;28;20226;-81
2023/04/10 11:12:15;;;;;;;0.50;0.50;;;23.80;39.00;;;;;;5074639;28;20198;-81
2023/04/10 11:14:43;;;;;;;0.60;0.60;;;23.30;37.40;;;;;;5074266;28;20191;-82
2023/04/10 11:17:11;;;;;;;1.37;0.50;;;23.00;39.50;;;;;;5073057;28;20696;-82
2023/04/10 11:20:00;;;;;;;0.60;0.50;;;22.60;40.10;;;;;;5073606;28;20508;-78
2023/04/10 11:22:27;;;;;;;0.50;0.50;;;22.10;39.40;;;;;;5073703;28;20206;-81
2023/04/10 11:24:57;;;;;;;0.57;0.50;;;21.50;39.10;;;;;;5073161;28;20724;-81
2023/04/10 11:27:48;;;;;;;0.60;0.50;;;21.20;39.40;;;;;;5073772;28;20444;-81
2023/04/10 11:30:35;;;;;;;1.10;0.60;;;21.00;40.00;;;;;;5073766;28;20509;-81
2023/04/10 11:33:04;;;;;;;0.60;0.50;;;20.70;40.50;;;;;;5073791;28;20425;-81
2023/04/10 11:35:33;;;;;;;0.80;0.50;;;20.80;40.70;;;;;;5073645;28;20449;-81
2023/04/10 11:38:17;;;;;;;1.10;0.60;;;20.70;40.60;;;;;;5073728;28;20449;-81
2023/04/10 11:40:54;;;;;;;0.60;0.50;;;20.30;39.60;;;;;;5073362;28;20469;-81
2023/04/10 11:43:21;;;;;;;0.40;0.40;;;20.00;38.30;;;;;;5073593;28;20445;-81
2023/04/10 11:45:48;;;;;;;0.63;0.60;;;19.80;40.80;;;;;;5073312;28;20481;-81
2023/04/10 11:48:15;;;;;;;0.50;0.50;;;19.70;38.60;;;;;;5073578;28;20417;-81
2023/04/10 11:50:44;;;;;;;0.40;0.40;;;19.70;40.70;;;;;;5073488;28;20500;-81
2023/04/10 11:53:21;;;;;;;0.60;0.50;;;19.40;38.90;;;;;;5073395;28;20936;-81
2023/04/10 11:55:48;;;;;;;0.50;0.50;;;19.40;38.70;;;;;;5073164;28;20476;-81
2023/04/10 11:58:32;;;;;;;0.50;0.50;;;19.40;39.10;;;;;;5073856;28;20506;-82
2023/04/10 12:01:00;;;;;;;0.40;0.40;;;19.30;37.50;;;;;;5073383;28;20465;-81
2023/04/10 12:03:35;;;;;;;0.47;0.40;;;19.10;39.10;;;;;;5073410;28;20456;-81
2023/04/10 12:06:04;;;;;;;0.60;0.47;;;18.90;37.70;;;;;;5073419;28;20424;-81
2023/04/10 12:08:32;;;;;;;0.60;0.60;;;18.90;40.00;;;;;;5072998;28;20798;-81
2023/04/10 12:10:59;;;;;;;0.70;0.43;;;19.00;40.50;;;;;;5073267;28;20497;-81
2023/04/10 12:13:26;;;;;;;0.50;0.50;;;18.90;39.70;;;;;;5073039;28;20532;-82
2023/04/10 12:15:53;;;;;;;0.50;0.50;;;18.90;39.60;;;;;;5072889;28;20480;-81
2023/04/10 12:18:20;;;;;;;0.40;0.40;;;18.80;38.80;;;;;;5073238;28;20445;-81
2023/04/10 12:20:47;;;;;;;0.60;0.50;;;18.70;39.70;;;;;;5073146;28;20476;-81
2023/04/10 12:23:15;;;;;;;1.07;0.50;;;18.60;39.50;;;;;;5073424;28;20445;-81
2023/04/10 12:25:42;;;;;;;0.40;0.30;;;18.40;40.10;;;;;;5073117;28;20453;-81
2023/04/10 12:28:09;;;;;;;0.70;0.43;;;18.40;39.30;;;;;;5074479;28;20449;-81
2023/04/10 12:30:35;;;;;;;0.70;0.50;;;18.50;40.10;;;;;;5077156;28;20469;-81
2023/04/10 12:33:06;;;;;;;0.50;0.47;;;18.50;40.60;;;;;;5077139;28;20452;-81
2023/04/10 12:35:42;;;;;;;0.40;0.40;;;18.50;39.80;;;;;;5077016;28;20529;-81
2023/04/10 12:38:09;;;;;;;0.40;0.40;;;18.60;39.70;;;;;;5077110;28;20841;-81
2023/04/10 12:40:40;;;;;;;0.40;0.30;;;18.50;39.40;;;;;;5076936;28;20474;-81
2023/04/10 12:43:07;;;;;;;1.00;0.53;;;18.50;37.90;;;;;;5076698;28;20801;-81
2023/04/10 12:45:43;;;;;;;0.50;0.30;;;18.40;38.30;;;;;;5076932;28;20449;-81
2023/04/10 12:48:10;;;;;;;1.57;0.40;;;18.40;37.50;;;;;;5076540;28;20951;-81
2023/04/10 12:50:46;;;;;;;0.40;0.30;;;18.40;38.90;;;;;;5076739;28;20473;-81
2023/04/10 12:53:13;;;;;;;0.70;0.47;;;18.30;37.80;;;;;;5076780;28;20465;-81
2023/04/10 12:55:41;;;;;;;0.60;0.40;;;18.30;37.90;;;;;;5076618;28;20445;-81
2023/04/10 12:58:18;;;;;;;0.40;0.40;;;18.40;38.30;;;;;;5076875;28;20449;-81
2023/04/10 13:00:45;;;;;;;0.60;0.50;;;18.50;39.30;;;;;;5076501;28;20464;-81